Time;durP1;ratioP1;P1;durP2;ratioP2;P2;SDS_P1;SDS_P2;PMS_P1;PMS_P2;Temp;Humidity;BMP_temperature;BMP_pressure;BME280_temperature;BME280_humidity;BME280_pressure;Samples;Min_cycle;Max_cycle;Signal;HPM_P1;HPM_P2
2023/05/15 00:00:09;;;;;;;17.63;13.47;;;13.60;99.90;;;;;;5031960;28;20241;-66
2023/05/15 00:02:36;;;;;;;15.40;12.73;;;13.50;99.90;;;;;;5032581;28;20171;-66
2023/05/15 00:05:03;;;;;;;14.50;13.00;;;13.50;99.90;;;;;;5031747;28;20215;-66
2023/05/15 00:07:29;;;;;;;15.80;14.10;;;13.50;99.90;;;;;;5032113;28;20180;-67
2023/05/15 00:09:54;;;;;;;16.00;13.63;;;13.50;99.90;;;;;;5031400;28;20187;-66
2023/05/15 00:12:20;;;;;;;18.70;13.80;;;13.50;99.90;;;;;;5031660;28;20218;-66
2023/05/15 00:14:45;;;;;;;21.60;15.90;;;13.40;99.90;;;;;;5031468;28;20263;-67
2023/05/15 00:17:11;;;;;;;20.53;14.40;;;13.40;99.90;;;;;;5031694;28;20183;-66
2023/05/15 00:19:37;;;;;;;18.83;15.33;;;13.40;99.90;;;;;;5030452;28;20229;-66
2023/05/15 00:22:03;;;;;;;21.43;15.50;;;13.40;99.90;;;;;;5031576;28;20241;-66
2023/05/15 00:24:29;;;;;;;24.83;16.43;;;13.40;99.90;;;;;;5030444;28;20183;-67
2023/05/15 00:26:54;;;;;;;25.47;17.80;;;13.40;99.90;;;;;;5031064;28;20176;-66
2023/05/15 00:29:20;;;;;;;22.60;17.27;;;13.40;99.90;;;;;;5031494;28;20184;-66
2023/05/15 00:31:45;;;;;;;21.03;17.20;;;13.40;99.90;;;;;;5031265;28;20179;-67
2023/05/15 00:34:11;;;;;;;22.73;17.97;;;13.40;99.90;;;;;;5031510;28;20175;-67
2023/05/15 00:36:37;;;;;;;23.07;17.87;;;13.40;99.90;;;;;;5031195;28;20199;-66
2023/05/15 00:39:02;;;;;;;29.00;18.30;;;13.40;99.90;;;;;;5031040;28;20167;-67
2023/05/15 00:41:31;;;;;;;24.27;17.73;;;13.40;99.90;;;;;;5031285;28;20176;-67
2023/05/15 00:43:59;;;;;;;22.20;17.93;;;13.40;99.90;;;;;;5031031;28;20183;-67
2023/05/15 00:46:26;;;;;;;24.77;17.80;;;13.40;99.90;;;;;;5031366;28;20192;-66
2023/05/15 00:48:52;;;;;;;26.97;18.60;;;13.40;99.90;;;;;;5031114;28;20262;-66
2023/05/15 00:51:18;;;;;;;26.47;17.97;;;13.40;99.90;;;;;;5030933;28;20186;-66
2023/05/15 00:53:43;;;;;;;28.13;18.27;;;13.50;99.90;;;;;;5031013;28;20215;-66
2023/05/15 00:56:11;;;;;;;28.27;18.93;;;13.50;99.90;;;;;;5031116;28;20649;-66
2023/05/15 00:58:37;;;;;;;25.80;18.13;;;13.60;99.90;;;;;;5011546;28;20172;-66
2023/05/15 01:01:03;;;;;;;24.30;18.50;;;13.60;99.90;;;;;;5011397;28;20211;-66
2023/05/15 01:03:28;;;;;;;27.97;18.80;;;13.70;99.90;;;;;;5030604;28;20222;-67
2023/05/15 01:05:54;;;;;;;28.30;19.40;;;13.80;99.90;;;;;;5035275;28;20680;-66
2023/05/15 01:08:31;;;;;;;22.87;18.63;;;13.90;99.90;;;;;;5035075;28;20218;-66
2023/05/15 01:10:58;;;;;;;25.47;18.47;;;14.00;99.90;;;;;;5035239;28;20465;-66
2023/05/15 01:13:23;;;;;;;28.03;18.17;;;14.00;99.90;;;;;;5034988;28;20303;-67
2023/05/15 01:15:49;;;;;;;30.27;19.20;;;14.00;99.90;;;;;;5035029;28;20215;-66
2023/05/15 01:18:15;;;;;;;24.60;18.60;;;14.10;99.90;;;;;;5035083;28;20653;-67
2023/05/15 01:21:04;;;;;;;25.77;19.77;;;14.20;99.90;;;;;;5034619;28;20180;-66
2023/05/15 01:23:35;;;;;;;23.70;18.43;;;14.20;99.90;;;;;;5026568;28;20192;-66
2023/05/15 01:26:18;;;;;;;24.70;18.07;;;14.20;99.90;;;;;;5035704;28;20496;-67
2023/05/15 01:28:55;;;;;;;30.20;18.03;;;14.30;99.90;;;;;;5034789;28;20281;-67
2023/05/15 01:31:23;;;;;;;25.97;19.10;;;14.30;99.90;;;;;;5034835;28;20337;-67
2023/05/15 01:33:54;;;;;;;27.97;19.27;;;14.30;99.90;;;;;;5034650;28;20548;-66
2023/05/15 01:36:44;;;;;;;26.17;18.50;;;14.30;99.90;;;;;;5034431;28;20207;-67
2023/05/15 01:39:11;;;;;;;29.90;20.70;;;14.40;99.90;;;;;;5034494;28;20633;-66
2023/05/15 01:41:56;;;;;;;28.33;20.50;;;14.50;99.90;;;;;;5034625;28;20171;-66
2023/05/15 01:44:31;;;;;;;33.10;20.17;;;14.40;99.90;;;;;;5034363;28;20206;-67
2023/05/15 01:47:03;;;;;;;31.80;20.67;;;14.40;99.90;;;;;;5034408;28;20716;-67
2023/05/15 01:49:31;;;;;;;43.70;23.07;;;14.40;99.90;;;;;;5034339;28;20271;-66
2023/05/15 01:52:06;;;;;;;38.40;22.47;;;14.50;99.90;;;;;;5034408;28;20687;-67
2023/05/15 01:54:33;;;;;;;44.60;23.93;;;14.50;99.90;;;;;;5034150;28;20183;-67
2023/05/15 01:56:59;;;;;;;39.33;21.47;;;14.50;99.90;;;;;;5034264;28;20179;-67
2023/05/15 01:59:27;;;;;;;42.87;23.20;;;14.50;99.90;;;;;;5033717;28;20175;-67
2023/05/15 02:01:53;;;;;;;37.70;23.60;;;14.50;99.90;;;;;;5034114;28;20287;-67
2023/05/15 02:04:19;;;;;;;46.00;24.73;;;14.40;99.90;;;;;;5034204;28;20256;-66
2023/05/15 02:06:46;;;;;;;49.87;23.57;;;14.30;99.90;;;;;;5034268;28;20226;-67
2023/05/15 02:09:13;;;;;;;33.43;20.97;;;14.30;99.90;;;;;;5033954;28;20659;-66
2023/05/15 02:11:39;;;;;;;40.53;23.27;;;14.30;99.90;;;;;;5033827;28;20195;-66
2023/05/15 02:14:07;;;;;;;31.53;20.27;;;14.20;99.90;;;;;;5033819;28;20222;-66
2023/05/15 02:16:33;;;;;;;33.23;19.03;;;14.20;99.90;;;;;;5033742;28;20203;-66
2023/05/15 02:18:58;;;;;;;29.20;19.53;;;14.10;99.90;;;;;;5033751;28;20171;-66
2023/05/15 02:21:24;;;;;;;25.17;18.17;;;14.10;99.90;;;;;;5034055;28;20168;-67
2023/05/15 02:23:50;;;;;;;23.80;18.63;;;14.00;99.90;;;;;;5033930;28;20531;-66
2023/05/15 02:26:49;;;;;;;27.73;18.03;;;14.00;99.90;;;;;;5033610;28;20245;-66
2023/05/15 02:29:21;;;;;;;24.87;18.93;;;14.00;99.90;;;;;;5033197;28;20250;-66
2023/05/15 02:31:51;;;;;;;33.67;19.07;;;14.10;99.90;;;;;;5033649;28;20179;-66
2023/05/15 02:34:36;;;;;;;25.63;19.50;;;14.10;99.90;;;;;;5033625;28;20180;-67
2023/05/15 02:37:03;;;;;;;29.77;18.73;;;14.20;99.90;;;;;;5033422;28;20176;-66
2023/05/15 02:39:30;;;;;;;26.73;19.60;;;14.20;99.90;;;;;;5033159;28;20598;-66
2023/05/15 02:41:58;;;;;;;27.13;19.00;;;14.20;99.90;;;;;;5034014;28;20675;-67
2023/05/15 02:44:24;;;;;;;23.50;18.67;;;14.30;99.90;;;;;;5033375;28;20189;-65
2023/05/15 02:46:53;;;;;;;27.93;20.03;;;14.30;99.90;;;;;;5033441;28;20545;-65
2023/05/15 02:49:19;;;;;;;28.53;19.63;;;14.20;99.90;;;;;;5033183;28;20206;-66
2023/05/15 02:51:45;;;;;;;27.23;21.07;;;14.20;99.90;;;;;;5033014;28;20540;-66
2023/05/15 02:54:10;;;;;;;31.67;20.17;;;14.10;99.90;;;;;;5033091;28;20188;-66
2023/05/15 02:56:36;;;;;;;29.13;21.47;;;14.00;99.90;;;;;;5033177;28;20290;-66
2023/05/15 02:59:02;;;;;;;34.63;20.73;;;13.90;99.90;;;;;;5033101;28;20258;-66
2023/05/15 03:01:27;;;;;;;28.90;21.20;;;13.90;99.90;;;;;;5033204;28;20222;-66
2023/05/15 03:03:53;;;;;;;30.60;20.20;;;13.90;99.90;;;;;;5032678;28;20699;-66
2023/05/15 03:06:18;;;;;;;35.97;21.03;;;13.80;99.90;;;;;;5032991;28;20222;-66
2023/05/15 03:08:44;;;;;;;34.30;20.57;;;13.80;99.90;;;;;;5032682;28;20179;-66
2023/05/15 03:11:10;;;;;;;34.03;22.30;;;13.70;99.90;;;;;;5032902;28;20324;-66
2023/05/15 03:13:35;;;;;;;39.47;22.80;;;13.70;99.90;;;;;;5032798;28;20305;-66
2023/05/15 03:16:01;;;;;;;35.87;21.53;;;13.60;99.90;;;;;;5032841;28;20202;-66
2023/05/15 03:18:26;;;;;;;38.17;23.73;;;13.60;99.90;;;;;;5032817;28;20677;-66
2023/05/15 03:20:52;;;;;;;37.97;24.00;;;13.60;99.90;;;;;;5032313;28;20176;-66
2023/05/15 03:23:18;;;;;;;35.37;23.37;;;13.60;99.90;;;;;;5031407;28;20183;-66
2023/05/15 03:25:43;;;;;;;35.17;23.90;;;13.50;99.90;;;;;;5032034;28;20207;-66
2023/05/15 03:28:09;;;;;;;43.77;25.53;;;13.50;99.90;;;;;;5032355;28;20179;-66
2023/05/15 03:30:35;;;;;;;38.73;25.13;;;13.50;99.90;;;;;;5032679;28;20179;-65
2023/05/15 03:33:02;;;;;;;37.53;23.80;;;13.50;99.90;;;;;;5032356;28;20211;-66
2023/05/15 03:35:29;;;;;;;42.77;24.33;;;13.50;99.90;;;;;;5032497;28;20191;-66
2023/05/15 03:37:55;;;;;;;36.60;22.67;;;13.40;99.90;;;;;;5030954;28;20207;-66
2023/05/15 03:40:20;;;;;;;39.47;24.60;;;13.40;99.90;;;;;;5032295;28;20603;-66
2023/05/15 03:42:46;;;;;;;49.20;26.80;;;13.40;99.90;;;;;;5031963;28;20190;-66
2023/05/15 03:45:11;;;;;;;36.83;23.30;;;13.40;99.90;;;;;;5032332;28;20603;-66
2023/05/15 03:47:37;;;;;;;42.47;24.33;;;13.50;99.90;;;;;;5032362;28;20192;-66
2023/05/15 03:50:03;;;;;;;38.47;23.67;;;13.50;99.90;;;;;;5032102;28;20256;-66
2023/05/15 03:52:28;;;;;;;36.60;24.33;;;13.50;99.90;;;;;;5032055;28;20207;-66
2023/05/15 03:54:54;;;;;;;39.13;23.70;;;13.50;99.90;;;;;;5031984;28;20222;-66
2023/05/15 03:57:20;;;;;;;35.10;23.30;;;13.60;99.90;;;;;;5031864;28;20202;-66
2023/05/15 03:59:45;;;;;;;34.77;23.97;;;13.60;99.90;;;;;;5031830;28;20175;-66
2023/05/15 04:02:11;;;;;;;32.87;22.93;;;13.60;99.90;;;;;;5031985;28;20201;-66
2023/05/15 04:04:37;;;;;;;33.03;22.80;;;13.70;99.90;;;;;;5031783;28;20175;-66
2023/05/15 04:07:03;;;;;;;39.80;24.50;;;13.70;99.90;;;;;;5031723;28;20176;-66
2023/05/15 04:09:29;;;;;;;38.17;23.87;;;13.60;99.90;;;;;;5031866;28;20246;-66
2023/05/15 04:11:54;;;;;;;41.40;23.07;;;13.60;99.90;;;;;;5031535;28;20198;-66
2023/05/15 04:14:20;;;;;;;42.47;26.27;;;13.50;99.90;;;;;;5031933;28;20282;-66
2023/05/15 04:16:46;;;;;;;48.27;26.43;;;13.50;99.90;;;;;;5031436;28;20630;-65
2023/05/15 04:19:11;;;;;;;45.30;26.77;;;13.50;99.90;;;;;;5031794;28;20251;-66
2023/05/15 04:21:37;;;;;;;49.73;25.13;;;13.50;99.90;;;;;;5031597;28;20210;-66
2023/05/15 04:24:03;;;;;;;44.97;27.03;;;13.50;99.90;;;;;;5031603;28;20617;-66
2023/05/15 04:26:28;;;;;;;47.37;26.23;;;13.60;99.90;;;;;;5031716;28;20289;-66
2023/05/15 04:28:56;;;;;;;43.50;26.57;;;13.60;99.90;;;;;;5031160;28;20191;-66
2023/05/15 04:31:22;;;;;;;45.03;27.30;;;13.70;99.90;;;;;;5031172;28;20187;-66
2023/05/15 04:33:47;;;;;;;45.67;28.40;;;13.70;99.90;;;;;;5031403;28;20265;-66
2023/05/15 04:36:13;;;;;;;42.17;26.53;;;13.70;99.90;;;;;;5031293;28;20650;-66
2023/05/15 04:38:38;;;;;;;40.80;26.80;;;13.70;99.90;;;;;;5029760;28;20537;-66
2023/05/15 04:41:04;;;;;;;42.53;26.43;;;13.70;99.90;;;;;;5029432;28;20182;-66
2023/05/15 04:43:30;;;;;;;41.17;24.20;;;13.70;99.90;;;;;;5031209;28;20219;-66
2023/05/15 04:45:56;;;;;;;40.83;24.93;;;13.70;99.90;;;;;;5031065;28;20286;-66
2023/05/15 04:48:21;;;;;;;40.83;24.63;;;13.70;99.90;;;;;;5026302;28;20268;-66
2023/05/15 04:50:47;;;;;;;38.20;24.90;;;13.60;99.90;;;;;;5029595;28;20183;-66
2023/05/15 04:53:13;;;;;;;35.57;23.90;;;13.60;99.90;;;;;;5031324;28;20245;-66
2023/05/15 04:55:39;;;;;;;32.93;22.80;;;13.60;99.90;;;;;;5030910;28;20244;-66
2023/05/15 04:58:04;;;;;;;33.97;22.33;;;13.60;99.90;;;;;;5031128;28;20175;-66
2023/05/15 05:00:30;;;;;;;30.50;22.47;;;13.60;99.90;;;;;;5030879;28;20187;-66
2023/05/15 05:02:56;;;;;;;35.67;22.10;;;13.70;99.90;;;;;;5031068;28;20175;-66
2023/05/15 05:05:22;;;;;;;31.00;21.07;;;13.80;99.90;;;;;;5030178;28;20598;-66
2023/05/15 05:07:50;;;;;;;29.10;21.07;;;13.90;99.90;;;;;;5030182;28;20621;-66
2023/05/15 05:10:16;;;;;;;27.80;22.20;;;13.90;99.90;;;;;;5030265;28;20183;-66
2023/05/15 05:12:41;;;;;;;28.37;21.17;;;13.90;99.90;;;;;;5030724;28;20344;-66
2023/05/15 05:15:08;;;;;;;33.27;21.07;;;13.90;99.90;;;;;;5030971;28;20227;-66
2023/05/15 05:17:33;;;;;;;31.27;19.73;;;13.90;99.90;;;;;;5031085;28;20183;-66
2023/05/15 05:19:59;;;;;;;26.93;19.30;;;14.00;99.90;;;;;;5030644;28;20630;-66
2023/05/15 05:22:25;;;;;;;28.63;19.97;;;14.00;99.90;;;;;;5030803;28;20194;-66
2023/05/15 05:24:50;;;;;;;26.93;20.73;;;14.10;99.90;;;;;;5030326;28;20210;-66
2023/05/15 05:27:16;;;;;;;27.90;21.60;;;14.00;99.90;;;;;;5030887;28;20255;-66
2023/05/15 05:29:41;;;;;;;32.17;22.50;;;13.90;99.90;;;;;;5030609;28;20556;-66
2023/05/15 05:32:07;;;;;;;36.73;23.20;;;13.70;99.90;;;;;;5030959;28;20207;-66
2023/05/15 05:34:33;;;;;;;29.57;21.13;;;13.70;99.90;;;;;;5030608;28;20254;-66
2023/05/15 05:36:59;;;;;;;28.67;21.57;;;13.60;99.90;;;;;;5030430;28;20207;-65
2023/05/15 05:39:24;;;;;;;31.30;22.00;;;13.60;99.90;;;;;;5030486;28;20211;-66
2023/05/15 05:41:50;;;;;;;30.60;21.70;;;13.60;99.90;;;;;;5030433;28;20180;-66
2023/05/15 05:44:16;;;;;;;33.70;21.03;;;13.60;99.90;;;;;;5030840;28;20175;-66
2023/05/15 05:46:41;;;;;;;31.30;20.73;;;13.60;99.90;;;;;;5030466;28;20199;-66
2023/05/15 05:49:07;;;;;;;31.40;20.57;;;13.60;99.90;;;;;;5029532;28;20322;-66
2023/05/15 05:51:37;;;;;;;31.80;21.77;;;13.50;99.90;;;;;;5034322;28;20596;-65
2023/05/15 05:54:03;;;;;;;30.03;20.77;;;13.50;99.90;;;;;;5032315;28;20211;-65
2023/05/15 05:56:29;;;;;;;31.63;21.93;;;13.50;99.90;;;;;;5034191;28;20677;-65
2023/05/15 05:58:55;;;;;;;36.40;23.17;;;13.40;99.90;;;;;;5033496;28;20211;-65
2023/05/15 06:01:21;;;;;;;30.90;21.17;;;13.40;99.90;;;;;;5033889;28;20579;-65
2023/05/15 06:03:47;;;;;;;28.67;19.17;;;13.40;99.90;;;;;;5033847;28;20183;-66
2023/05/15 06:06:12;;;;;;;30.50;19.67;;;13.30;99.90;;;;;;5033861;28;20277;-64
2023/05/15 06:08:38;;;;;;;36.40;23.07;;;13.30;99.90;;;;;;5033922;28;20191;-66
2023/05/15 06:11:04;;;;;;;34.17;22.00;;;13.30;99.90;;;;;;5033670;28;20540;-65
2023/05/15 06:13:30;;;;;;;26.87;21.20;;;13.30;99.90;;;;;;5032428;28;20211;-65
2023/05/15 06:15:55;;;;;;;34.87;21.90;;;13.40;99.90;;;;;;5033618;28;20274;-67
2023/05/15 06:18:21;;;;;;;34.50;21.47;;;13.60;99.90;;;;;;5033615;28;20642;-66
2023/05/15 06:20:46;;;;;;;28.83;22.57;;;13.70;99.90;;;;;;5033272;28;20180;-66
2023/05/15 06:23:12;;;;;;;39.20;25.20;;;13.80;99.90;;;;;;5033597;28;20182;-66
2023/05/15 06:25:38;;;;;;;31.27;23.70;;;13.90;99.90;;;;;;5034039;28;20239;-66
2023/05/15 06:28:03;;;;;;;28.80;21.33;;;14.00;99.90;;;;;;5033475;28;20186;-65
2023/05/15 06:30:32;;;;;;;32.57;23.43;;;14.30;99.90;;;;;;5033434;28;20266;-66
2023/05/15 06:32:58;;;;;;;32.37;20.57;;;14.30;99.90;;;;;;5033289;28;20676;-65
2023/05/15 06:35:23;;;;;;;27.80;21.10;;;14.40;99.90;;;;;;5033724;28;20231;-65
2023/05/15 06:37:50;;;;;;;33.33;21.70;;;14.30;99.90;;;;;;5033908;28;20200;-64
2023/05/15 06:40:16;;;;;;;36.53;22.77;;;14.40;99.90;;;;;;5034070;28;20241;-65
2023/05/15 06:42:42;;;;;;;29.27;21.67;;;14.50;99.90;;;;;;5035529;28;20668;-65
2023/05/15 06:45:08;;;;;;;31.43;22.33;;;14.60;99.90;;;;;;5034592;28;20282;-65
2023/05/15 06:47:34;;;;;;;31.80;21.57;;;14.50;99.90;;;;;;5036036;28;20278;-66
2023/05/15 06:49:59;;;;;;;30.67;22.60;;;14.60;99.90;;;;;;5034664;28;20203;-66
2023/05/15 06:52:25;;;;;;;33.73;21.80;;;14.70;99.90;;;;;;5036002;28;20238;-66
2023/05/15 06:54:50;;;;;;;33.07;20.97;;;14.70;99.90;;;;;;5034921;28;20238;-66
2023/05/15 06:57:19;;;;;;;31.73;21.60;;;14.60;99.90;;;;;;5034436;28;20194;-66
2023/05/15 06:59:45;;;;;;;30.57;23.40;;;14.50;99.90;;;;;;5034323;28;20179;-65
2023/05/15 07:02:10;;;;;;;30.03;23.03;;;14.20;99.90;;;;;;5032591;28;20560;-66
2023/05/15 07:04:36;;;;;;;31.13;22.17;;;14.10;99.90;;;;;;5032634;28;20621;-65
2023/05/15 07:07:02;;;;;;;31.73;22.70;;;14.10;99.90;;;;;;5030279;28;20492;-65
2023/05/15 07:09:27;;;;;;;31.10;22.20;;;14.00;99.90;;;;;;5032083;28;20215;-65
2023/05/15 07:11:53;;;;;;;34.53;23.70;;;13.90;99.90;;;;;;5031393;28;20191;-66
2023/05/15 07:14:18;;;;;;;34.10;22.73;;;14.00;99.90;;;;;;5031720;28;20626;-65
2023/05/15 07:16:45;;;;;;;33.77;24.03;;;14.00;99.90;;;;;;5031284;28;20195;-65
2023/05/15 07:19:11;;;;;;;31.77;23.67;;;14.00;99.90;;;;;;5031655;28;20537;-65
2023/05/15 07:21:38;;;;;;;30.27;21.83;;;14.10;99.90;;;;;;5031220;28;20183;-65
2023/05/15 07:24:04;;;;;;;52.07;24.53;;;14.10;99.90;;;;;;5030375;28;20215;-65
2023/05/15 07:26:31;;;;;;;34.97;24.93;;;14.20;99.90;;;;;;5031206;28;20246;-65
2023/05/15 07:28:58;;;;;;;36.70;26.20;;;14.40;99.90;;;;;;5031382;28;20211;-65
2023/05/15 07:31:23;;;;;;;37.47;24.47;;;14.40;99.90;;;;;;5031073;28;20238;-65
2023/05/15 07:33:49;;;;;;;37.90;24.17;;;14.30;99.90;;;;;;5031397;28;20195;-65
2023/05/15 07:36:15;;;;;;;32.03;23.37;;;14.30;99.90;;;;;;5031206;28;20483;-66
2023/05/15 07:38:40;;;;;;;29.80;22.20;;;14.40;99.90;;;;;;5031297;28;20172;-66
2023/05/15 07:41:06;;;;;;;30.43;21.33;;;14.70;99.90;;;;;;5011441;28;20541;-66
2023/05/15 07:43:31;;;;;;;35.93;24.07;;;14.80;99.90;;;;;;5020667;28;20198;-65
2023/05/15 07:45:57;;;;;;;32.00;23.83;;;15.00;99.90;;;;;;5031429;28;20585;-65
2023/05/15 07:48:23;;;;;;;33.80;22.43;;;15.30;99.90;;;;;;5031125;28;20267;-65
2023/05/15 07:50:51;;;;;;;31.80;21.63;;;15.50;99.90;;;;;;5030936;28;20180;-65
2023/05/15 07:53:16;;;;;;;27.20;20.67;;;15.60;99.90;;;;;;5031045;28;20290;-65
2023/05/15 07:55:43;;;;;;;30.77;20.67;;;15.70;99.90;;;;;;5031172;28;20270;-65
2023/05/15 07:58:08;;;;;;;28.80;21.77;;;15.80;99.90;;;;;;5030972;28;20263;-65
2023/05/15 08:00:35;;;;;;;29.37;21.70;;;15.60;99.90;;;;;;5031008;28;20258;-65
2023/05/15 08:03:00;;;;;;;30.43;22.27;;;15.50;99.90;;;;;;5030898;28;20672;-65
2023/05/15 08:07:54;;;;;;;29.17;21.10;;;15.60;99.90;;;;;;5010740;28;20208;-66
2023/05/15 08:10:20;;;;;;;27.77;20.30;;;15.80;99.90;;;;;;5012248;28;20637;-66
2023/05/15 08:12:46;;;;;;;24.87;19.80;;;15.90;99.90;;;;;;5011436;28;20215;-64
2023/05/15 08:15:13;;;;;;;24.27;19.27;;;16.00;99.90;;;;;;5012284;28;20295;-64
2023/05/15 08:17:38;;;;;;;27.33;20.30;;;16.20;99.90;;;;;;5012165;28;20551;-64
2023/05/15 08:20:05;;;;;;;22.33;19.80;;;16.30;99.90;;;;;;5010039;28;20184;-64
2023/05/15 08:22:30;;;;;;;21.70;18.10;;;16.50;99.90;;;;;;5011637;28;20636;-64
2023/05/15 08:24:57;;;;;;;26.43;18.40;;;16.80;99.90;;;;;;5011827;28;20259;-64
2023/05/15 08:27:22;;;;;;;28.30;18.93;;;17.00;99.90;;;;;;5011748;28;20176;-64
2023/05/15 08:29:48;;;;;;;22.40;18.50;;;17.20;99.90;;;;;;5011417;28;20668;-64
2023/05/15 08:32:13;;;;;;;25.10;17.27;;;17.40;99.90;;;;;;5011571;28;20200;-64
2023/05/15 08:34:39;;;;;;;22.13;17.73;;;17.90;99.90;;;;;;5012006;28;20259;-64
2023/05/15 08:37:07;;;;;;;22.40;16.90;;;18.40;99.90;;;;;;5011704;28;20200;-64
2023/05/15 08:39:33;;;;;;;21.63;17.08;;;18.80;99.90;;;;;;5011785;28;20182;-63
2023/05/15 08:42:04;;;;;;;22.63;15.52;;;19.10;99.90;;;;;;5011405;28;20184;-64
2023/05/15 08:44:30;;;;;;;20.58;15.05;;;19.20;99.90;;;;;;5012061;28;20176;-64
2023/05/15 08:46:56;;;;;;;20.83;16.50;;;19.50;99.90;;;;;;5011233;28;20248;-64
2023/05/15 08:49:22;;;;;;;20.33;16.63;;;19.70;99.90;;;;;;5011564;28;20649;-64
2023/05/15 08:51:48;;;;;;;21.48;16.30;;;20.00;99.90;;;;;;5010282;28;20190;-64
2023/05/15 08:54:14;;;;;;;18.67;14.27;;;20.50;99.90;;;;;;5011699;28;20212;-63
2023/05/15 08:56:41;;;;;;;20.75;15.93;;;21.00;99.90;;;;;;5011047;28;20624;-64
2023/05/15 08:59:06;;;;;;;21.08;14.73;;;21.40;99.90;;;;;;5011370;28;20491;-64
2023/05/15 09:01:32;;;;;;;17.77;12.85;;;21.90;99.90;;;;;;5011538;28;20650;-64
2023/05/15 09:03:58;;;;;;;17.63;13.50;;;22.60;99.90;;;;;;5011546;28;20192;-64
2023/05/15 09:06:25;;;;;;;17.15;13.93;;;22.90;99.90;;;;;;5011482;28;20223;-64
2023/05/15 09:08:54;;;;;;;20.83;13.68;;;23.00;99.90;;;;;;5009831;28;20811;-64
2023/05/15 09:11:24;;;;;;;15.57;12.43;;;23.00;99.90;;;;;;5009840;28;20212;-64
2023/05/15 09:13:50;;;;;;;15.35;13.30;;;23.40;99.90;;;;;;5011429;28;20215;-63
2023/05/15 09:16:15;;;;;;;14.55;12.52;;;23.40;99.90;;;;;;5010061;28;20203;-64
2023/05/15 09:18:42;;;;;;;15.75;13.23;;;23.60;99.90;;;;;;5011577;28;20168;-64
2023/05/15 09:21:26;;;;;;;19.13;15.18;;;23.60;99.90;;;;;;5010922;28;20662;-64
2023/05/15 09:23:52;;;;;;;13.38;11.95;;;23.50;99.90;;;;;;5011855;28;20180;-64
2023/05/15 09:26:18;;;;;;;16.58;13.23;;;23.00;99.90;;;;;;5014808;28;20195;-64
2023/05/15 09:28:44;;;;;;;16.45;13.82;;;22.90;99.90;;;;;;5015450;28;20721;-64
2023/05/15 09:31:10;;;;;;;16.65;13.77;;;22.70;99.90;;;;;;5014886;28;20179;-64
2023/05/15 09:33:40;;;;;;;22.63;13.63;;;22.60;99.90;;;;;;5015364;28;20212;-64
2023/05/15 09:36:07;;;;;;;17.77;13.57;;;22.50;99.90;;;;;;5015141;28;20226;-64
2023/05/15 09:38:33;;;;;;;16.83;13.73;;;22.30;99.90;;;;;;5015376;28;20242;-64
2023/05/15 09:41:04;;;;;;;17.65;13.07;;;22.40;99.90;;;;;;5014488;28;20176;-64
2023/05/15 09:43:36;;;;;;;15.32;13.52;;;22.30;99.90;;;;;;5015201;28;20251;-64
2023/05/15 09:46:01;;;;;;;22.73;15.00;;;22.20;99.90;;;;;;5013394;28;20665;-64
2023/05/15 09:48:28;;;;;;;17.58;15.80;;;22.30;99.90;;;;;;5015428;28;20247;-64
2023/05/15 09:50:55;;;;;;;19.17;14.57;;;22.50;99.90;;;;;;5014476;28;20183;-64
2023/05/15 09:53:21;;;;;;;17.17;13.73;;;22.50;99.90;;;;;;5013310;28;20211;-64
2023/05/15 09:55:47;;;;;;;12.68;11.38;;;22.70;99.90;;;;;;5013580;28;20696;-64
2023/05/15 09:58:16;;;;;;;14.50;11.48;;;23.10;99.90;;;;;;5014756;28;20246;-65
2023/05/15 10:00:43;;;;;;;15.95;12.48;;;23.40;99.90;;;;;;5014308;28;20264;-64
2023/05/15 10:03:09;;;;;;;12.43;9.95;;;23.60;99.90;;;;;;5013155;28;20641;-64
2023/05/15 10:05:35;;;;;;;16.42;12.68;;;23.50;99.90;;;;;;5013352;28;20571;-65
2023/05/15 10:08:02;;;;;;;12.95;11.32;;;23.60;99.90;;;;;;5014070;28;20241;-64
2023/05/15 10:10:28;;;;;;;13.65;12.27;;;23.60;99.90;;;;;;5013830;28;20210;-65
2023/05/15 10:13:02;;;;;;;18.48;12.73;;;24.00;99.90;;;;;;5014413;28;20207;-64
2023/05/15 10:15:28;;;;;;;13.05;11.35;;;24.20;99.90;;;;;;5014594;28;20756;-64
2023/05/15 10:17:54;;;;;;;12.23;10.98;;;24.20;99.90;;;;;;5014413;28;20172;-64
2023/05/15 10:20:23;;;;;;;13.95;12.02;;;24.40;99.90;;;;;;5014299;28;20168;-64
2023/05/15 10:22:51;;;;;;;15.73;12.07;;;24.60;99.90;;;;;;5013479;28;20306;-64
2023/05/15 10:25:39;;;;;;;16.02;12.90;;;24.60;99.90;;;;;;5014321;28;20662;-64
2023/05/15 10:28:09;;;;;;;13.70;11.50;;;25.10;99.90;;;;;;5014546;28;20317;-65
2023/05/15 10:30:35;;;;;;;18.02;12.30;;;24.90;99.90;;;;;;5013962;28;20656;-64
2023/05/15 10:33:03;;;;;;;13.10;11.65;;;24.70;99.90;;;;;;5014003;28;20279;-64
2023/05/15 10:35:29;;;;;;;13.63;12.18;;;24.80;99.90;;;;;;5013986;28;20192;-63
2023/05/15 10:37:56;;;;;;;14.98;13.45;;;24.80;99.90;;;;;;5014154;28;20168;-64
2023/05/15 10:40:22;;;;;;;19.02;12.95;;;24.70;99.90;;;;;;5014043;28;20641;-64
2023/05/15 10:42:48;;;;;;;14.27;11.98;;;24.90;99.90;;;;;;5013984;28;20183;-65
2023/05/15 10:45:14;;;;;;;13.00;11.55;;;25.10;99.90;;;;;;5013853;28;20199;-65
2023/05/15 10:47:42;;;;;;;13.45;11.50;;;25.00;99.90;;;;;;5014381;28;20348;-65
2023/05/15 10:50:08;;;;;;;15.65;11.88;;;24.70;99.90;;;;;;5013865;28;20184;-64
2023/05/15 10:52:37;;;;;;;12.38;11.07;;;25.00;99.90;;;;;;5014069;28;20249;-64
2023/05/15 10:55:15;;;;;;;13.27;11.15;;;25.00;99.90;;;;;;5013552;28;20177;-65
2023/05/15 10:57:41;;;;;;;16.40;11.32;;;24.80;99.90;;;;;;5013956;28;20649;-65
2023/05/15 11:00:21;;;;;;;15.70;9.88;;;24.80;99.90;;;;;;5013351;28;20355;-64
2023/05/15 11:02:48;;;;;;;15.85;11.10;;;24.90;99.90;;;;;;5013319;28;20207;-65
2023/05/15 11:05:14;;;;;;;15.63;12.32;;;25.00;99.90;;;;;;5013418;28;20600;-65
2023/05/15 11:07:40;;;;;;;12.93;11.30;;;24.90;99.90;;;;;;5013466;28;20192;-65
2023/05/15 11:10:36;;;;;;;13.38;10.80;;;25.10;99.90;;;;;;5013373;28;20633;-66
2023/05/15 11:13:03;;;;;;;13.05;11.75;;;25.20;99.90;;;;;;5013242;28;20199;-65
2023/05/15 11:15:41;;;;;;;12.95;9.65;;;25.10;99.90;;;;;;5013480;28;20188;-65
2023/05/15 11:18:07;;;;;;;11.27;10.05;;;25.20;99.90;;;;;;5013516;28;20637;-65
2023/05/15 11:20:38;;;;;;;10.82;9.27;;;25.10;99.90;;;;;;5013123;28;20184;-65
2023/05/15 11:23:04;;;;;;;10.45;9.55;;;25.50;99.90;;;;;;5012343;28;20172;-65
2023/05/15 11:25:31;;;;;;;11.23;10.10;;;25.60;99.90;;;;;;5013143;28;20287;-65
2023/05/15 11:27:56;;;;;;;9.93;8.95;;;25.70;99.90;;;;;;5013077;28;20307;-65
2023/05/15 11:30:33;;;;;;;10.75;9.63;;;25.70;99.90;;;;;;5012964;28;20721;-65
2023/05/15 11:33:01;;;;;;;9.38;8.48;;;25.50;99.90;;;;;;5012868;28;20243;-65
2023/05/15 11:35:47;;;;;;;10.88;9.57;;;25.70;99.90;;;;;;5013376;28;20658;-65
2023/05/15 11:38:13;;;;;;;10.98;9.95;;;25.60;99.90;;;;;;5013423;28;20172;-65
2023/05/15 11:40:57;;;;;;;9.75;8.68;;;25.50;99.90;;;;;;5012809;28;20182;-65
2023/05/15 11:43:27;;;;;;;11.35;9.23;;;25.50;99.90;;;;;;5013175;28;20184;-65
2023/05/15 11:45:57;;;;;;;10.90;8.38;;;25.40;99.90;;;;;;5012880;28;20650;-65
2023/05/15 11:48:25;;;;;;;9.40;8.40;;;25.50;99.90;;;;;;5012488;28;20176;-65
2023/05/15 11:50:53;;;;;;;10.32;9.30;;;25.60;99.90;;;;;;5012545;28;20172;-65
2023/05/15 11:53:21;;;;;;;11.32;10.15;;;25.70;99.90;;;;;;5012697;28;20204;-65
2023/05/15 11:55:47;;;;;;;11.55;10.38;;;25.80;99.90;;;;;;5011364;28;20187;-65
2023/05/15 11:58:18;;;;;;;10.82;9.38;;;25.90;99.90;;;;;;5011449;28;20172;-65
2023/05/15 12:00:47;;;;;;;10.68;8.60;;;25.90;99.90;;;;;;5011295;28;20601;-65
2023/05/15 12:03:31;;;;;;;9.40;8.50;;;25.60;99.90;;;;;;5012516;28;20173;-65
2023/05/15 12:05:57;;;;;;;9.70;8.80;;;25.30;99.90;;;;;;5012426;28;20200;-65
2023/05/15 12:08:22;;;;;;;9.32;8.13;;;25.20;99.90;;;;;;5011225;28;20229;-64
2023/05/15 12:10:49;;;;;;;10.63;9.55;;;25.00;99.90;;;;;;5012288;28;20709;-65
2023/05/15 12:13:17;;;;;;;11.43;8.90;;;24.90;99.90;;;;;;5012286;28;20265;-65
2023/05/15 12:15:44;;;;;;;10.32;8.63;;;25.00;99.90;;;;;;5012240;28;20192;-65
2023/05/15 12:18:11;;;;;;;10.45;8.90;;;25.40;99.90;;;;;;5012417;28;20171;-65
2023/05/15 12:20:38;;;;;;;10.55;8.85;;;25.80;99.90;;;;;;5012011;28;20168;-65
2023/05/15 12:23:05;;;;;;;9.63;8.35;;;26.10;99.90;;;;;;5011391;28;20187;-64
2023/05/15 12:25:35;;;;;;;10.68;9.70;;;26.40;99.90;;;;;;5012116;28;20226;-65
2023/05/15 12:28:03;;;;;;;12.88;11.57;;;26.40;99.90;;;;;;5012066;28;20176;-65
2023/05/15 12:30:33;;;;;;;11.48;10.10;;;26.50;99.90;;;;;;5012547;28;20179;-65